Time;durP1;ratioP1;P1;durP2;ratioP2;P2;SDS_P1;SDS_P2;PMS_P1;PMS_P2;Temp;Humidity;BMP_temperature;BMP_pressure;BME280_temperature;BME280_humidity;BME280_pressure;Samples;Min_cycle;Max_cycle;Signal;HPM_P1;HPM_P2
2021/10/26 00:00:51;;;;;;;12.10;7.87;;;11.80;99.90;;;;;;5014696;28;20116;-84
2021/10/26 00:03:16;;;;;;;12.77;7.97;;;11.70;99.90;;;;;;5015382;28;20072;-84
2021/10/26 00:05:42;;;;;;;11.83;7.50;;;11.80;99.90;;;;;;5015512;28;20026;-84
2021/10/26 00:08:08;;;;;;;11.70;7.13;;;11.80;99.90;;;;;;5015448;28;20623;-84
2021/10/26 00:10:34;;;;;;;12.20;7.73;;;11.80;99.90;;;;;;5029884;28;20116;-84
2021/10/26 00:13:00;;;;;;;12.67;7.87;;;11.80;99.90;;;;;;5013992;28;20099;-84
2021/10/26 00:15:26;;;;;;;13.03;7.97;;;11.70;99.90;;;;;;5014543;28;20045;-84
2021/10/26 00:17:52;;;;;;;12.77;7.67;;;11.70;99.90;;;;;;5016216;28;20049;-84
2021/10/26 00:20:18;;;;;;;11.33;6.80;;;11.70;99.90;;;;;;5013969;28;20037;-84
2021/10/26 00:22:43;;;;;;;14.90;7.60;;;11.80;99.90;;;;;;5014642;28;20617;-84
2021/10/26 00:25:09;;;;;;;15.17;8.03;;;11.70;99.90;;;;;;5015586;28;20050;-84
2021/10/26 00:27:35;;;;;;;13.20;7.77;;;11.80;99.90;;;;;;5015575;28;20025;-84
2021/10/26 00:30:00;;;;;;;11.80;7.90;;;11.80;99.90;;;;;;5012854;28;20084;-84
2021/10/26 00:32:26;;;;;;;13.07;7.50;;;11.70;99.90;;;;;;5013978;28;20029;-84
2021/10/26 00:34:52;;;;;;;12.73;7.83;;;11.70;99.90;;;;;;5014357;28;20018;-84
2021/10/26 00:37:18;;;;;;;12.23;7.30;;;11.70;99.90;;;;;;5012513;28;20028;-84
2021/10/26 00:39:44;;;;;;;12.23;7.53;;;11.70;99.90;;;;;;5013831;28;20025;-83
2021/10/26 00:42:11;;;;;;;14.63;7.80;;;11.70;99.90;;;;;;5014014;28;20026;-83
2021/10/26 00:44:37;;;;;;;11.17;7.80;;;11.70;99.90;;;;;;5014585;28;20029;-83
2021/10/26 00:47:04;;;;;;;14.30;7.63;;;11.70;99.90;;;;;;5013725;28;20029;-84
2021/10/26 00:49:29;;;;;;;12.87;7.30;;;11.70;99.90;;;;;;5013025;28;20045;-83
2021/10/26 00:51:56;;;;;;;11.80;7.77;;;11.70;99.90;;;;;;5014181;28;20544;-83
2021/10/26 00:54:25;;;;;;;13.23;7.50;;;11.70;99.90;;;;;;5013067;28;20126;-83
2021/10/26 00:56:52;;;;;;;13.90;7.93;;;11.80;99.90;;;;;;5012363;28;20068;-83
2021/10/26 00:59:17;;;;;;;12.20;7.80;;;11.80;99.90;;;;;;5013704;28;20025;-83
2021/10/26 01:01:44;;;;;;;11.47;7.87;;;11.70;99.90;;;;;;5011527;28;20705;-83
2021/10/26 01:04:10;;;;;;;12.27;7.33;;;11.80;99.90;;;;;;5014617;28;20497;-84
2021/10/26 01:09:03;;;;;;;12.57;7.33;;;11.70;99.90;;;;;;5070359;22;20538;-88
2021/10/26 01:11:29;;;;;;;13.73;7.87;;;11.70;99.90;;;;;;5050017;28;20059;-87
2021/10/26 01:13:55;;;;;;;12.83;8.13;;;11.70;99.90;;;;;;5051448;28;20025;-88
2021/10/26 01:16:21;;;;;;;12.47;7.70;;;11.70;99.90;;;;;;5051431;28;20029;-87
2021/10/26 01:18:47;;;;;;;12.63;7.43;;;11.70;99.90;;;;;;5049921;28;20025;-87
2021/10/26 01:21:13;;;;;;;11.37;7.70;;;11.70;99.90;;;;;;5049606;28;20039;-88
2021/10/26 01:23:39;;;;;;;12.37;7.00;;;11.70;99.90;;;;;;5049940;28;20376;-87
2021/10/26 01:26:04;;;;;;;12.43;7.82;;;11.80;99.90;;;;;;5049697;28;20079;-86
2021/10/26 01:28:30;;;;;;;10.17;6.50;;;11.70;99.90;;;;;;5049550;28;20033;-87
2021/10/26 01:30:56;;;;;;;11.67;7.60;;;11.70;99.90;;;;;;5050563;28;20099;-88
2021/10/26 01:33:21;;;;;;;13.37;8.40;;;11.80;99.90;;;;;;5049786;28;20025;-87
2021/10/26 01:35:48;;;;;;;13.30;7.27;;;11.70;99.90;;;;;;5051150;28;20029;-87
2021/10/26 01:38:13;;;;;;;13.27;7.37;;;11.70;99.90;;;;;;5051125;28;20024;-87
2021/10/26 01:40:39;;;;;;;14.03;8.03;;;11.70;99.90;;;;;;5050587;28;20516;-87
2021/10/26 01:43:05;;;;;;;14.33;8.10;;;11.70;99.90;;;;;;5051248;28;20108;-87
2021/10/26 01:45:31;;;;;;;13.40;7.97;;;11.70;99.90;;;;;;5049674;28;20231;-87
2021/10/26 01:47:57;;;;;;;12.30;7.80;;;11.80;99.90;;;;;;5050016;28;20587;-88
2021/10/26 01:50:22;;;;;;;13.77;8.23;;;11.80;99.90;;;;;;5050291;28;20026;-88
2021/10/26 01:52:49;;;;;;;12.33;7.57;;;11.70;99.90;;;;;;5049561;28;20032;-87
2021/10/26 01:55:18;;;;;;;14.07;7.97;;;11.80;99.90;;;;;;5049411;28;20507;-87
2021/10/26 01:57:44;;;;;;;13.45;9.00;;;11.70;99.90;;;;;;5049435;28;20029;-86
2021/10/26 02:00:12;;;;;;;13.70;8.20;;;11.80;99.90;;;;;;5048723;28;20047;-88
2021/10/26 02:02:37;;;;;;;14.50;7.87;;;11.80;99.90;;;;;;5050830;28;20025;-87
2021/10/26 02:05:04;;;;;;;13.63;8.50;;;11.70;99.90;;;;;;5049477;28;20039;-87
2021/10/26 02:07:30;;;;;;;14.50;8.40;;;11.80;99.90;;;;;;5050657;28;20033;-87
2021/10/26 02:09:56;;;;;;;14.47;8.87;;;11.80;99.90;;;;;;5049818;28;20095;-87
2021/10/26 02:12:22;;;;;;;14.13;8.37;;;11.80;99.90;;;;;;5049154;28;20021;-87
2021/10/26 02:15:03;;;;;;;18.50;9.30;;;11.80;99.90;;;;;;5049526;28;20025;-87
2021/10/26 02:17:29;;;;;;;13.30;8.20;;;11.80;99.90;;;;;;5049360;28;20025;-87
2021/10/26 02:19:55;;;;;;;14.83;9.23;;;11.80;99.90;;;;;;5048572;28;20436;-87
2021/10/26 02:22:20;;;;;;;17.27;9.47;;;11.80;99.90;;;;;;5050464;28;20388;-87
2021/10/26 02:24:46;;;;;;;15.80;9.57;;;11.80;99.90;;;;;;5050554;28;20024;-87
2021/10/26 02:27:12;;;;;;;14.53;8.37;;;11.90;99.90;;;;;;5049332;28;20470;-87
2021/10/26 02:29:37;;;;;;;15.35;8.93;;;11.80;99.90;;;;;;5050022;28;20438;-87
2021/10/26 02:32:04;;;;;;;16.17;9.07;;;11.80;99.90;;;;;;5048850;28;20068;-87
2021/10/26 02:34:30;;;;;;;16.63;9.47;;;11.80;99.90;;;;;;5050336;28;20045;-87
2021/10/26 02:36:56;;;;;;;17.30;9.77;;;11.80;99.90;;;;;;5048408;28;20135;-87
2021/10/26 02:39:22;;;;;;;18.27;10.40;;;11.80;99.90;;;;;;5047290;28;20127;-86
2021/10/26 02:41:47;;;;;;;15.73;9.35;;;11.80;99.90;;;;;;5049921;28;20029;-87
2021/10/26 02:44:13;;;;;;;16.67;9.13;;;11.80;99.90;;;;;;5050449;28;20025;-87
2021/10/26 02:46:39;;;;;;;21.67;11.07;;;11.80;99.90;;;;;;5049782;28;20029;-87
2021/10/26 02:49:04;;;;;;;15.57;9.00;;;11.90;99.90;;;;;;5049320;28;20033;-86
2021/10/26 02:51:30;;;;;;;14.23;9.03;;;11.80;99.90;;;;;;5049777;28;20153;-87
2021/10/26 02:53:56;;;;;;;17.70;10.13;;;11.80;99.90;;;;;;5048635;28;20048;-87
2021/10/26 02:56:21;;;;;;;15.90;10.00;;;11.80;99.90;;;;;;5048607;28;20025;-88
2021/10/26 02:58:47;;;;;;;20.10;10.70;;;11.80;99.90;;;;;;5048278;28;20033;-87
2021/10/26 03:01:13;;;;;;;17.97;9.90;;;11.90;99.90;;;;;;5048214;28;20025;-86
2021/10/26 03:03:39;;;;;;;18.02;9.88;;;11.80;99.90;;;;;;5048518;28;20040;-87
2021/10/26 03:06:05;;;;;;;16.00;9.30;;;11.80;99.90;;;;;;5048389;28;20033;-87
2021/10/26 03:08:31;;;;;;;16.13;9.57;;;11.80;99.90;;;;;;5047930;28;20477;-87
2021/10/26 03:10:57;;;;;;;13.73;9.20;;;11.80;99.90;;;;;;5048865;28;20096;-87
2021/10/26 03:13:23;;;;;;;16.33;9.47;;;11.80;99.90;;;;;;5051275;28;20082;-87
2021/10/26 03:15:49;;;;;;;17.17;9.57;;;11.90;99.90;;;;;;5053167;28;20025;-87
2021/10/26 03:18:15;;;;;;;20.90;11.73;;;11.90;99.90;;;;;;5052064;28;20124;-87
2021/10/26 03:20:41;;;;;;;19.43;11.27;;;11.90;99.90;;;;;;5051300;28;20428;-87
2021/10/26 03:23:07;;;;;;;19.73;11.80;;;11.90;99.90;;;;;;5053557;28;20067;-87
2021/10/26 03:25:33;;;;;;;20.40;11.57;;;11.90;99.90;;;;;;5051412;28;20186;-87
2021/10/26 03:28:00;;;;;;;17.80;11.00;;;11.90;99.90;;;;;;5053585;28;20116;-87
2021/10/26 03:30:26;;;;;;;18.60;11.40;;;11.90;99.90;;;;;;5054527;28;20035;-87
2021/10/26 03:32:52;;;;;;;18.67;10.40;;;11.90;99.90;;;;;;5054007;28;20025;-87
2021/10/26 03:35:18;;;;;;;21.20;11.00;;;11.90;99.90;;;;;;5051267;28;20044;-87
2021/10/26 03:37:44;;;;;;;20.70;10.97;;;11.90;99.90;;;;;;5051577;28;20053;-86
2021/10/26 03:40:11;;;;;;;19.33;11.23;;;11.90;99.90;;;;;;5050864;28;20071;-87
2021/10/26 03:42:37;;;;;;;19.50;10.63;;;11.90;99.90;;;;;;5051718;28;20029;-87
2021/10/26 03:45:03;;;;;;;18.00;11.00;;;11.90;99.90;;;;;;5051559;28;20432;-87
2021/10/26 03:47:29;;;;;;;19.83;11.40;;;11.90;99.90;;;;;;5051562;28;20080;-88
2021/10/26 03:49:55;;;;;;;17.83;10.63;;;11.90;99.90;;;;;;5052245;28;20423;-87
2021/10/26 03:52:20;;;;;;;17.23;10.00;;;11.90;99.90;;;;;;5051513;28;20025;-87
2021/10/26 03:54:46;;;;;;;19.37;10.47;;;11.90;99.90;;;;;;5052776;28;20033;-88
2021/10/26 03:57:12;;;;;;;16.97;9.80;;;11.90;99.90;;;;;;5051184;28;20061;-87
2021/10/26 03:59:40;;;;;;;17.83;10.40;;;11.90;99.90;;;;;;5052009;28;20025;-88
2021/10/26 04:02:19;;;;;;;17.13;10.05;;;11.90;99.90;;;;;;5051289;28;20444;-87
2021/10/26 04:04:45;;;;;;;18.63;9.53;;;11.90;99.90;;;;;;5051459;28;20029;-87
2021/10/26 04:07:10;;;;;;;15.77;9.80;;;12.00;99.90;;;;;;5051135;28;20363;-88
2021/10/26 04:09:47;;;;;;;19.30;10.57;;;12.00;99.90;;;;;;5050641;28;20029;-88
2021/10/26 04:14:48;;;;;;;18.63;10.93;;;12.00;99.90;;;;;;5052524;28;20363;-87
2021/10/26 04:17:14;;;;;;;19.17;10.80;;;12.00;99.90;;;;;;5052283;28;20438;-87
2021/10/26 04:19:40;;;;;;;16.93;10.10;;;12.00;99.90;;;;;;5050730;28;20037;-87
2021/10/26 04:22:07;;;;;;;19.05;10.70;;;12.00;99.90;;;;;;5052860;28;20033;-87
2021/10/26 04:24:33;;;;;;;19.63;11.10;;;12.00;99.90;;;;;;5049694;28;20025;-87
2021/10/26 04:26:59;;;;;;;16.90;10.40;;;12.00;99.90;;;;;;5051844;28;20043;-87
2021/10/26 04:29:24;;;;;;;21.93;11.83;;;12.00;99.90;;;;;;5051061;28;20163;-88
2021/10/26 04:31:50;;;;;;;23.93;11.37;;;12.00;99.90;;;;;;5050566;28;20059;-87
2021/10/26 04:34:16;;;;;;;19.50;11.10;;;12.00;99.90;;;;;;5050611;28;20025;-88
2021/10/26 04:36:41;;;;;;;17.80;10.93;;;12.00;99.90;;;;;;5050539;28;20035;-88
2021/10/26 04:39:07;;;;;;;21.37;12.10;;;12.00;99.90;;;;;;5050514;28;20039;-87
2021/10/26 04:41:36;;;;;;;16.43;10.10;;;12.00;99.90;;;;;;5050509;28;20137;-89
2021/10/26 04:44:02;;;;;;;;;;;12.00;99.90;;;;;;5050935;28;20045;-88
2021/10/26 04:46:32;;;;;;;21.97;11.23;;;12.00;99.90;;;;;;5051833;28;19904;-88
2021/10/26 04:48:58;;;;;;;17.33;10.70;;;12.00;99.90;;;;;;5049673;28;20028;-88
2021/10/26 04:51:23;;;;;;;18.73;10.63;;;12.00;99.90;;;;;;5050647;28;20086;-89
2021/10/26 04:53:52;;;;;;;19.97;11.70;;;12.00;99.90;;;;;;5050581;28;20036;-90
2021/10/26 04:56:18;;;;;;;17.73;11.00;;;12.00;99.90;;;;;;5052120;28;20032;-89
2021/10/26 04:58:43;;;;;;;16.23;10.73;;;12.00;99.90;;;;;;5050718;28;20482;-86
2021/10/26 05:01:09;;;;;;;30.17;15.43;;;12.00;99.90;;;;;;5052899;28;20048;-90
2021/10/26 05:03:35;;;;;;;20.07;13.33;;;12.10;99.90;;;;;;5050379;28;20032;-90
2021/10/26 05:06:03;;;;;;;22.27;12.63;;;12.10;99.90;;;;;;5049939;28;20052;-89
2021/10/26 05:08:28;;;;;;;22.23;12.73;;;12.30;99.90;;;;;;5049672;28;20507;-89
2021/10/26 05:10:54;;;;;;;21.77;12.45;;;12.40;99.90;;;;;;5049339;28;20115;-89
2021/10/26 05:13:20;;;;;;;23.00;12.25;;;12.40;99.90;;;;;;5050963;28;20029;-88
2021/10/26 05:15:45;;;;;;;19.08;11.05;;;12.50;99.90;;;;;;5050274;28;20048;-88
2021/10/26 05:18:13;;;;;;;21.20;11.98;;;12.50;99.90;;;;;;5050242;28;20024;-89
2021/10/26 05:20:40;;;;;;;20.58;11.40;;;12.60;99.90;;;;;;5049594;28;20052;-88
2021/10/26 05:23:06;;;;;;;20.20;10.77;;;12.60;99.90;;;;;;5049982;28;20035;-89
2021/10/26 05:25:33;;;;;;;18.75;10.52;;;12.60;99.90;;;;;;5049609;28;20025;-87
2021/10/26 05:27:59;;;;;;;25.08;12.05;;;12.60;99.90;;;;;;5050565;28;20458;-87
2021/10/26 05:30:25;;;;;;;23.17;11.90;;;12.60;99.90;;;;;;5048610;28;20219;-87
2021/10/26 05:32:51;;;;;;;24.05;12.48;;;12.60;99.90;;;;;;5051243;28;20147;-85
2021/10/26 05:35:16;;;;;;;22.30;11.85;;;12.60;99.90;;;;;;5050680;28;20972;-86
2021/10/26 05:37:42;;;;;;;21.05;11.13;;;12.50;99.90;;;;;;5050925;28;20021;-88
2021/10/26 05:40:09;;;;;;;22.23;11.48;;;12.50;99.90;;;;;;5050342;28;20029;-90
2021/10/26 05:42:38;;;;;;;21.02;12.18;;;12.40;99.90;;;;;;5049368;28;20079;-85
2021/10/26 05:45:05;;;;;;;23.65;12.35;;;12.40;99.90;;;;;;5050980;28;20039;-87
2021/10/26 05:47:31;;;;;;;22.38;12.45;;;12.40;99.90;;;;;;5049412;28;20484;-89
2021/10/26 05:49:56;;;;;;;25.52;14.93;;;12.30;99.90;;;;;;5050286;28;20053;-88
2021/10/26 05:52:22;;;;;;;29.77;15.15;;;12.30;99.90;;;;;;5049209;28;20021;-87
2021/10/26 05:54:47;;;;;;;20.52;12.55;;;12.30;99.90;;;;;;5049512;28;20496;-85
2021/10/26 05:57:13;;;;;;;18.88;12.30;;;12.30;99.90;;;;;;5048810;28;20063;-85
2021/10/26 05:59:39;;;;;;;24.48;12.40;;;12.20;99.90;;;;;;5048780;28;20169;-86
2021/10/26 06:02:05;;;;;;;18.77;11.75;;;12.20;99.90;;;;;;5049145;28;20020;-86
2021/10/26 06:04:30;;;;;;;26.65;12.45;;;12.20;99.90;;;;;;5047753;28;20029;-86
2021/10/26 06:06:56;;;;;;;21.55;11.98;;;12.20;99.90;;;;;;5048491;28;20469;-86
2021/10/26 06:09:23;;;;;;;25.35;12.45;;;12.20;99.90;;;;;;5046846;28;20028;-86
2021/10/26 06:11:50;;;;;;;27.15;12.65;;;12.20;99.90;;;;;;5048067;28;20056;-86
2021/10/26 06:14:16;;;;;;;24.80;12.43;;;12.20;99.90;;;;;;5047258;28;20052;-86
2021/10/26 06:16:42;;;;;;;25.77;12.80;;;12.20;99.90;;;;;;5050412;28;20548;-86
2021/10/26 06:19:09;;;;;;;26.33;13.40;;;12.20;99.90;;;;;;5049449;28;20075;-86
2021/10/26 06:21:35;;;;;;;26.08;13.70;;;12.20;99.90;;;;;;5049826;28;20025;-87
2021/10/26 06:24:01;;;;;;;25.38;13.65;;;12.20;99.90;;;;;;5048453;28;20033;-86
2021/10/26 06:26:29;;;;;;;26.60;12.82;;;12.10;99.90;;;;;;5047846;28;20032;-86
2021/10/26 06:28:55;;;;;;;24.23;12.43;;;12.10;99.90;;;;;;5048007;28;20025;-86
2021/10/26 06:31:21;;;;;;;22.38;12.00;;;12.10;99.90;;;;;;5049629;28;20108;-86
2021/10/26 06:33:47;;;;;;;20.60;11.73;;;12.10;99.90;;;;;;5050344;28;20402;-86
2021/10/26 06:36:12;;;;;;;18.17;11.68;;;12.10;99.90;;;;;;5048569;28;20017;-86
2021/10/26 06:38:38;;;;;;;21.67;12.07;;;12.10;99.90;;;;;;5048214;28;20517;-85
2021/10/26 06:41:04;;;;;;;21.53;11.87;;;12.10;99.90;;;;;;5047401;28;20044;-85
2021/10/26 06:43:34;;;;;;;27.40;13.70;;;12.10;99.90;;;;;;5049861;28;20476;-85
2021/10/26 06:46:00;;;;;;;20.90;11.93;;;12.20;99.90;;;;;;5048704;28;20032;-85
2021/10/26 06:48:26;;;;;;;20.20;10.93;;;12.20;99.90;;;;;;5052898;28;20091;-85
2021/10/26 06:50:52;;;;;;;22.00;11.80;;;12.10;99.90;;;;;;5052665;28;20421;-85
2021/10/26 06:53:19;;;;;;;17.85;10.35;;;12.20;99.90;;;;;;5053415;28;20025;-85
2021/10/26 06:55:45;;;;;;;20.20;9.70;;;12.20;99.90;;;;;;5052303;28;20021;-86
2021/10/26 06:58:11;;;;;;;16.10;9.00;;;12.20;99.90;;;;;;5052293;28;20140;-85
2021/10/26 07:00:38;;;;;;;21.05;10.65;;;12.20;99.90;;;;;;5052794;28;20375;-85
2021/10/26 07:03:04;;;;;;;21.88;11.10;;;12.30;99.90;;;;;;5052775;28;20166;-86
2021/10/26 07:05:31;;;;;;;22.13;12.13;;;12.20;99.90;;;;;;5053897;28;20111;-86
2021/10/26 07:07:57;;;;;;;20.05;11.40;;;12.20;99.90;;;;;;5078851;22;20037;-83
2021/10/26 07:10:23;;;;;;;22.33;11.20;;;12.20;99.90;;;;;;5056758;28;20036;-84
2021/10/26 07:12:49;;;;;;;21.08;12.40;;;12.20;99.90;;;;;;5057654;28;20047;-83
2021/10/26 07:15:15;;;;;;;26.27;12.60;;;12.20;99.90;;;;;;5056393;28;20025;-83
2021/10/26 07:17:44;;;;;;;21.57;12.50;;;12.20;99.90;;;;;;5056642;28;20081;-83
2021/10/26 07:20:13;;;;;;;25.13;12.00;;;12.20;99.90;;;;;;5055824;28;20520;-82
2021/10/26 07:22:40;;;;;;;22.83;11.77;;;12.20;99.90;;;;;;5055818;28;20025;-83
2021/10/26 07:25:09;;;;;;;23.23;11.80;;;12.20;99.90;;;;;;5057565;28;20476;-83
2021/10/26 07:27:36;;;;;;;20.02;11.40;;;12.20;99.90;;;;;;5056089;28;20025;-83
2021/10/26 07:30:04;;;;;;;19.58;11.10;;;12.20;99.90;;;;;;5055832;28;20434;-83
2021/10/26 07:32:29;;;;;;;18.80;10.50;;;12.20;99.90;;;;;;5055543;28;20017;-85
2021/10/26 07:34:55;;;;;;;18.35;10.88;;;12.20;99.90;;;;;;5056094;28;20028;-83
2021/10/26 07:37:27;;;;;;;21.85;11.77;;;12.20;99.90;;;;;;5057964;28;20017;-82
2021/10/26 07:39:52;;;;;;;22.05;11.55;;;12.20;99.90;;;;;;5057910;28;20035;-82
2021/10/26 07:42:19;;;;;;;20.88;11.23;;;12.20;99.90;;;;;;5055850;28;20021;-83
2021/10/26 07:44:47;;;;;;;23.37;11.33;;;12.20;99.90;;;;;;5056374;28;20109;-84
2021/10/26 07:47:16;;;;;;;26.33;11.98;;;12.30;99.90;;;;;;5057767;28;20078;-83
2021/10/26 07:49:43;;;;;;;24.08;12.63;;;12.20;99.90;;;;;;5061606;28;20021;-82
2021/10/26 07:52:08;;;;;;;21.90;12.48;;;12.30;99.90;;;;;;5062780;28;20025;-83
2021/10/26 07:54:34;;;;;;;29.83;14.52;;;12.20;99.90;;;;;;5055776;28;20056;-84
2021/10/26 07:57:00;;;;;;;24.70;13.13;;;12.30;99.90;;;;;;5056367;28;20499;-84
2021/10/26 07:59:26;;;;;;;26.38;13.50;;;12.30;99.90;;;;;;5058903;28;20029;-83
2021/10/26 08:01:52;;;;;;;30.27;14.20;;;12.30;99.90;;;;;;5057345;28;20493;-82
2021/10/26 08:04:18;;;;;;;23.40;12.97;;;12.30;99.90;;;;;;5057076;28;20143;-82
2021/10/26 08:06:45;;;;;;;31.75;13.85;;;12.40;99.90;;;;;;5052467;28;20101;-81
2021/10/26 08:09:11;;;;;;;21.58;13.13;;;12.40;99.90;;;;;;5052087;28;20048;-82
2021/10/26 08:11:36;;;;;;;23.00;12.73;;;12.40;99.90;;;;;;5051116;28;20032;-83
2021/10/26 08:14:04;;;;;;;21.98;12.95;;;12.40;99.90;;;;;;5052492;28;20021;-83
2021/10/26 08:16:30;;;;;;;24.73;13.07;;;12.40;99.90;;;;;;5052354;28;20018;-83
2021/10/26 08:18:55;;;;;;;25.17;12.70;;;12.50;99.90;;;;;;5051930;28;20374;-83
2021/10/26 08:21:21;;;;;;;22.23;12.95;;;12.60;99.90;;;;;;5052315;28;20094;-83
2021/10/26 08:23:49;;;;;;;22.23;12.15;;;12.60;99.90;;;;;;5051183;28;20029;-83
2021/10/26 08:26:19;;;;;;;21.25;12.48;;;12.50;99.90;;;;;;5050904;28;20524;-83
2021/10/26 08:28:47;;;;;;;21.15;11.60;;;12.50;99.90;;;;;;5051399;28;20028;-83
2021/10/26 08:31:18;;;;;;;23.23;12.15;;;12.60;99.90;;;;;;5052779;28;20021;-84
2021/10/26 08:36:25;;;;;;;26.08;12.18;;;12.60;99.90;;;;;;5055926;28;20036;-83
2021/10/26 08:38:50;;;;;;;19.27;10.90;;;12.60;99.90;;;;;;5055446;28;20108;-83
2021/10/26 08:41:18;;;;;;;23.42;10.05;;;12.60;99.90;;;;;;5056046;28;20017;-83
2021/10/26 08:43:44;;;;;;;20.83;10.38;;;12.60;99.90;;;;;;5054843;28;20032;-83
2021/10/26 08:46:11;;;;;;;17.02;9.20;;;12.70;99.90;;;;;;5056529;28;20024;-83
2021/10/26 08:48:40;;;;;;;19.15;10.68;;;12.70;99.90;;;;;;5055578;28;20347;-82
2021/10/26 08:51:06;;;;;;;18.85;9.20;;;12.70;99.90;;;;;;5053726;28;20070;-83
2021/10/26 08:53:32;;;;;;;21.00;9.13;;;12.70;99.90;;;;;;5052928;28;20029;-84
2021/10/26 08:56:02;;;;;;;17.45;9.55;;;12.70;99.90;;;;;;5055484;28;20025;-84
2021/10/26 08:58:29;;;;;;;15.98;10.25;;;12.70;99.90;;;;;;5054487;28;20489;-86
2021/10/26 09:00:58;;;;;;;18.50;9.73;;;12.80;99.90;;;;;;5053780;28;20033;-84
2021/10/26 09:03:29;;;;;;;19.23;8.75;;;12.80;99.90;;;;;;5052017;28;20032;-84
2021/10/26 09:05:55;;;;;;;17.23;8.68;;;12.80;99.90;;;;;;5054549;28;20024;-84
2021/10/26 09:08:25;;;;;;;17.90;8.25;;;12.80;99.90;;;;;;5053853;28;20400;-84
2021/10/26 09:10:52;;;;;;;17.33;8.35;;;12.80;99.90;;;;;;5051580;28;20036;-84
2021/10/26 09:16:47;;;;;;;15.32;7.63;;;12.80;99.90;;;;;;5061206;28;20039;-83
2021/10/26 09:19:19;;;;;;;18.50;8.02;;;12.80;99.90;;;;;;5065189;28;20033;-83
2021/10/26 09:22:06;;;;;;;14.70;7.15;;;12.80;99.90;;;;;;5065057;28;20079;-84
2021/10/26 09:24:33;;;;;;;17.58;7.60;;;12.80;99.90;;;;;;5052648;28;20061;-84
2021/10/26 09:27:06;;;;;;;13.73;6.78;;;12.80;99.90;;;;;;5050852;28;20117;-83
2021/10/26 09:29:47;;;;;;;13.32;6.28;;;12.80;99.90;;;;;;5052950;28;20027;-84
2021/10/26 09:32:15;;;;;;;15.75;6.03;;;12.80;99.90;;;;;;5057405;28;20064;-84
2021/10/26 09:34:57;;;;;;;16.38;6.65;;;12.80;99.90;;;;;;5055420;28;20021;-84
2021/10/26 09:37:24;;;;;;;19.17;7.40;;;12.80;99.90;;;;;;5052232;28;20017;-83
2021/10/26 09:39:58;;;;;;;15.68;7.32;;;12.80;99.90;;;;;;5051688;28;20388;-84
2021/10/26 09:42:29;;;;;;;15.73;6.63;;;12.80;99.90;;;;;;5051800;28;20025;-84
2021/10/26 09:45:02;;;;;;;18.92;6.38;;;12.80;99.90;;;;;;5050666;28;20039;-83
2021/10/26 09:47:34;;;;;;;16.52;6.30;;;12.80;99.90;;;;;;5050438;28;20029;-84
2021/10/26 09:50:03;;;;;;;16.25;7.28;;;12.80;99.90;;;;;;5051400;28;20044;-83
2021/10/26 09:52:31;;;;;;;13.93;6.00;;;12.80;99.90;;;;;;5050306;28;20020;-84
2021/10/26 09:55:02;;;;;;;15.90;6.15;;;12.80;99.90;;;;;;5050103;28;20033;-83
2021/10/26 09:57:33;;;;;;;12.50;5.70;;;12.80;99.90;;;;;;5051893;28;20021;-84
2021/10/26 10:00:00;;;;;;;11.60;4.93;;;12.90;99.90;;;;;;5051475;28;20029;-83
2021/10/26 10:02:26;;;;;;;13.27;5.43;;;12.90;99.90;;;;;;5051657;28;20021;-84
2021/10/26 10:04:56;;;;;;;11.50;4.65;;;12.90;99.90;;;;;;5051740;28;20108;-83
2021/10/26 10:07:38;;;;;;;14.57;5.00;;;12.90;99.90;;;;;;5051716;28;20036;-83
2021/10/26 10:10:11;;;;;;;13.48;4.63;;;13.00;99.90;;;;;;5050398;28;20025;-83
2021/10/26 10:12:44;;;;;;;12.40;5.28;;;13.00;99.90;;;;;;5051085;28;20025;-84
2021/10/26 10:15:12;;;;;;;16.70;5.50;;;13.00;99.90;;;;;;5051527;28;20029;-83
2021/10/26 10:17:37;;;;;;;16.67;6.07;;;13.00;99.90;;;;;;5050235;28;20028;-84
2021/10/26 10:20:06;;;;;;;11.55;5.35;;;13.00;99.90;;;;;;5050768;28;20366;-83
2021/10/26 10:22:32;;;;;;;13.40;4.97;;;13.00;99.90;;;;;;5053844;28;20123;-84
2021/10/26 10:25:03;;;;;;;13.02;5.78;;;13.00;99.90;;;;;;5055110;28;20044;-84
2021/10/26 10:27:33;;;;;;;13.75;6.13;;;13.10;99.90;;;;;;5055637;28;20506;-84
2021/10/26 10:29:59;;;;;;;14.65;4.93;;;13.10;99.90;;;;;;5053613;28;20359;-83
2021/10/26 10:32:29;;;;;;;14.80;4.80;;;13.10;99.90;;;;;;5055351;28;20040;-83
2021/10/26 10:34:59;;;;;;;13.50;4.68;;;13.10;99.90;;;;;;5055525;28;20104;-83
2021/10/26 10:37:27;;;;;;;12.07;4.45;;;13.20;99.90;;;;;;5055056;28;20029;-84
2021/10/26 10:40:02;;;;;;;14.63;4.60;;;13.20;99.90;;;;;;5054962;28;20099;-84
2021/10/26 10:42:31;;;;;;;14.02;4.55;;;13.20;99.90;;;;;;5054257;28;20035;-83
2021/10/26 10:45:18;;;;;;;15.23;4.97;;;13.20;99.90;;;;;;5053640;28;20049;-83
2021/10/26 10:47:44;;;;;;;12.07;5.75;;;13.30;99.90;;;;;;5054960;28;20060;-83
2021/10/26 10:50:37;;;;;;;16.45;5.80;;;13.20;99.90;;;;;;5053190;28;20115;-83
2021/10/26 10:53:20;;;;;;;13.45;5.32;;;13.30;99.90;;;;;;5053817;28;20551;-84
2021/10/26 10:56:09;;;;;;;16.73;5.43;;;13.30;99.90;;;;;;5052678;28;20027;-84
2021/10/26 10:58:40;;;;;;;14.90;5.05;;;13.30;99.90;;;;;;5053893;28;20507;-84
2021/10/26 11:01:25;;;;;;;14.60;4.88;;;13.40;99.90;;;;;;5054763;28;20029;-84
2021/10/26 11:03:53;;;;;;;11.85;5.07;;;13.40;99.90;;;;;;5057332;28;20035;-84
2021/10/26 11:06:41;;;;;;;11.93;5.75;;;13.40;99.90;;;;;;5055924;28;20120;-83
2021/10/26 11:09:29;;;;;;;13.27;4.95;;;13.40;99.90;;;;;;5045660;28;20033;-83
2021/10/26 11:12:06;;;;;;;16.92;5.45;;;13.40;99.90;;;;;;5056181;28;20089;-84
2021/10/26 11:14:42;;;;;;;10.90;4.25;;;13.50;99.90;;;;;;5055266;28;20456;-83
2021/10/26 11:17:40;;;;;;;14.25;4.30;;;13.50;99.90;;;;;;5056823;28;20036;-84
2021/10/26 11:20:25;;;;;;;8.57;4.03;;;13.50;99.90;;;;;;5056533;28;20051;-84
2021/10/26 11:22:52;;;;;;;13.90;4.72;;;13.50;99.90;;;;;;5057195;28;20431;-84
2021/10/26 11:25:34;;;;;;;13.27;4.68;;;13.60;99.90;;;;;;5057146;28;20465;-84
2021/10/26 11:28:16;;;;;;;12.07;5.03;;;13.60;99.90;;;;;;5056482;28;20063;-84
2021/10/26 11:30:44;;;;;;;14.15;4.20;;;13.70;99.90;;;;;;5057689;28;20032;-84
2021/10/26 11:33:10;;;;;;;16.27;4.30;;;13.80;99.90;;;;;;5055821;28;20029;-84
2021/10/26 11:36:00;;;;;;;7.90;3.35;;;13.80;99.90;;;;;;5056553;28;20029;-84
2021/10/26 11:38:29;;;;;;;11.27;4.65;;;13.80;99.90;;;;;;5055791;28;20029;-84
2021/10/26 11:41:05;;;;;;;12.20;3.17;;;13.90;99.90;;;;;;5056619;28;20029;-84
2021/10/26 11:43:58;;;;;;;11.68;4.13;;;14.00;99.90;;;;;;5057023;28;20463;-85
2021/10/26 11:46:40;;;;;;;8.50;3.70;;;14.00;99.90;;;;;;5056032;28;20029;-84
2021/10/26 11:49:12;;;;;;;13.25;3.97;;;14.00;99.90;;;;;;5053260;28;20044;-84
2021/10/26 11:52:03;;;;;;;8.90;3.53;;;14.00;99.90;;;;;;5056118;28;20442;-84
2021/10/26 11:54:35;;;;;;;7.60;3.05;;;14.00;99.90;;;;;;5052741;28;20087;-84
2021/10/26 11:57:09;;;;;;;9.88;3.38;;;14.00;99.90;;;;;;5055642;28;20013;-83
2021/10/26 11:59:42;;;;;;;11.07;3.38;;;14.10;99.90;;;;;;5055272;28;20029;-83
2021/10/26 12:02:19;;;;;;;11.10;3.30;;;14.10;99.90;;;;;;5055504;28;20021;-84
2021/10/26 12:04:54;;;;;;;6.03;3.10;;;14.10;99.90;;;;;;5052759;28;20343;-83
2021/10/26 12:07:22;;;;;;;8.32;3.17;;;14.10;99.90;;;;;;5053558;28;20028;-83
2021/10/26 12:09:53;;;;;;;15.90;3.55;;;14.10;99.90;;;;;;5053408;28;20060;-83
2021/10/26 12:12:23;;;;;;;10.63;3.08;;;14.10;99.90;;;;;;5053751;28;20115;-84
2021/10/26 12:14:53;;;;;;;10.80;3.67;;;14.10;99.90;;;;;;5056592;28;20013;-84
2021/10/26 12:17:35;;;;;;;7.95;2.53;;;14.10;99.90;;;;;;5054177;28;20025;-84
2021/10/26 12:20:05;;;;;;;11.60;3.33;;;14.20;99.90;;;;;;5055697;28;20420;-83
2021/10/26 12:22:38;;;;;;;10.27;3.10;;;14.20;99.90;;;;;;5056836;28;20021;-83
2021/10/26 12:25:15;;;;;;;6.57;2.53;;;14.20;99.90;;;;;;5055685;28;20079;-83
2021/10/26 12:27:53;;;;;;;9.07;2.70;;;14.20;99.90;;;;;;5056095;28;20021;-83
2021/10/26 12:30:30;;;;;;;7.80;2.33;;;14.20;99.90;;;;;;5055844;28;20410;-84
2021/10/26 12:33:06;;;;;;;11.55;3.70;;;14.20;99.90;;;;;;5055057;28;20025;-84
2021/10/26 12:35:42;;;;;;;8.70;3.20;;;14.30;99.90;;;;;;5056367;28;20024;-84
2021/10/26 12:38:10;;;;;;;11.38;3.38;;;14.30;99.90;;;;;;5054959;28;20043;-84
2021/10/26 12:40:45;;;;;;;10.07;3.65;;;14.30;99.90;;;;;;5052585;28;20029;-83
2021/10/26 12:43:13;;;;;;;12.45;3.63;;;14.30;99.90;;;;;;5056416;28;20029;-83
2021/10/26 12:45:41;;;;;;;11.63;4.07;;;14.30;99.90;;;;;;5053572;28;20404;-84
2021/10/26 12:48:09;;;;;;;10.57;2.95;;;14.40;99.90;;;;;;5056144;28;20025;-83
2021/10/26 12:50:58;;;;;;;5.85;2.80;;;14.40;99.90;;;;;;5053773;28;20052;-83